Time;durP1;ratioP1;P1;durP2;ratioP2;P2;SDS_P1;SDS_P2;PMS_P1;PMS_P2;Temp;Humidity;BMP_temperature;BMP_pressure;BME280_temperature;BME280_humidity;BME280_pressure;Samples;Min_cycle;Max_cycle;Signal;HPM_P1;HPM_P2
2021/11/18 00:00:59;;;;;;;;;;;6.40;99.90;;;;;;5051320;28;19982;-54
2021/11/18 00:03:26;;;;;;;;;;;6.50;99.90;;;;;;5066536;28;19970;-53
2021/11/18 00:05:53;;;;;;;;;;;6.40;99.90;;;;;;5056209;28;19936;-54
2021/11/18 00:08:19;;;;;;;;;;;6.30;99.90;;;;;;5052793;28;19925;-53
2021/11/18 00:10:51;;;;;;;;;;;6.30;99.90;;;;;;5052382;28;19980;-54
2021/11/18 00:13:18;;;;;;;;;;;6.30;99.90;;;;;;5052733;28;19936;-54
2021/11/18 00:15:45;;;;;;;;;;;6.30;99.90;;;;;;5051933;28;19971;-54
2021/11/18 00:18:14;;;;;;;;;;;6.20;99.90;;;;;;5052541;28;19979;-53
2021/11/18 00:20:42;;;;;;;;;;;6.10;99.90;;;;;;5051763;28;19924;-54
2021/11/18 00:23:10;;;;;;;;;;;6.10;99.90;;;;;;5052562;28;19933;-53
2021/11/18 00:25:37;;;;;;;;;;;6.20;99.90;;;;;;5052298;28;19970;-54
2021/11/18 00:28:06;;;;;;;;;;;6.20;99.90;;;;;;5052420;28;19928;-53
2021/11/18 00:30:32;;;;;;;;;;;6.30;99.90;;;;;;5051778;28;19982;-54
2021/11/18 00:32:59;;;;;;;;;;;6.40;99.90;;;;;;5052532;28;19929;-53
2021/11/18 00:35:27;;;;;;;;;;;6.50;99.90;;;;;;5052157;28;19990;-54
2021/11/18 00:37:55;;;;;;;;;;;6.50;99.90;;;;;;5052266;28;19978;-52
2021/11/18 00:40:23;;;;;;;;;;;6.50;99.90;;;;;;5051502;28;20456;-54
2021/11/18 00:42:50;;;;;;;;;;;6.50;99.90;;;;;;5051772;28;19929;-54
2021/11/18 00:45:20;;;;;;;;;;;6.40;99.90;;;;;;5051693;28;19979;-53
2021/11/18 00:47:47;;;;;;;;;;;6.50;99.90;;;;;;5052334;28;19925;-53
2021/11/18 00:50:14;;;;;;;;;;;6.60;99.90;;;;;;5051768;28;19979;-54
2021/11/18 00:52:41;;;;;;;;;;;6.60;99.90;;;;;;5052031;28;19925;-54
2021/11/18 00:55:09;;;;;;;;;;;6.50;99.90;;;;;;5052017;28;20520;-53
2021/11/18 00:57:36;;;;;;;;;;;6.50;99.90;;;;;;5052232;28;19925;-54
2021/11/18 01:00:04;;;;;;;;;;;6.50;99.90;;;;;;5051098;28;19929;-55
2021/11/18 01:02:33;;;;;;;;;;;6.40;99.90;;;;;;5051800;28;20452;-54
2021/11/18 01:04:59;;;;;;;;;;;6.40;99.90;;;;;;5052108;28;19928;-54
2021/11/18 01:07:26;;;;;;;;;;;6.60;99.90;;;;;;5051587;28;19925;-53
2021/11/18 01:09:53;;;;;;;;;;;6.60;99.90;;;;;;5055473;28;19928;-54
2021/11/18 01:12:20;;;;;;;;;;;6.50;99.90;;;;;;5055675;28;20353;-54
2021/11/18 01:14:47;;;;;;;;;;;6.50;99.90;;;;;;5055775;28;19925;-53
2021/11/18 01:17:14;;;;;;;;;;;6.50;99.90;;;;;;5055915;28;20357;-54
2021/11/18 01:19:42;;;;;;;;;;;6.40;99.90;;;;;;5055590;28;19979;-54
2021/11/18 01:22:09;;;;;;;;;;;6.30;99.90;;;;;;5055270;28;19929;-54
2021/11/18 01:24:37;;;;;;;;;;;6.30;99.90;;;;;;5055449;28;20437;-54
2021/11/18 01:27:04;;;;;;;;;;;6.30;99.90;;;;;;5055869;28;20359;-54
2021/11/18 01:29:31;;;;;;;;;;;6.30;99.90;;;;;;5055109;28;19925;-54
2021/11/18 01:31:58;;;;;;;;;;;6.40;99.90;;;;;;5055175;28;19929;-54
2021/11/18 01:34:26;;;;;;;;;;;6.30;99.90;;;;;;5055370;28;19924;-54
2021/11/18 01:36:54;;;;;;;;;;;6.10;99.90;;;;;;5055241;28;19924;-53
2021/11/18 01:39:21;;;;;;;;;;;6.10;99.90;;;;;;5055252;28;19991;-53
2021/11/18 01:41:48;;;;;;;;;;;5.90;99.90;;;;;;5055259;28;19978;-53
2021/11/18 01:44:16;;;;;;;;;;;5.90;99.90;;;;;;5055151;28;20398;-54
2021/11/18 01:46:43;;;;;;;;;;;6.00;99.90;;;;;;5055349;28;19929;-53
2021/11/18 01:49:11;;;;;;;;;;;5.90;99.90;;;;;;5055362;28;19928;-53
2021/11/18 01:51:41;;;;;;;;;;;6.00;99.90;;;;;;5055304;28;19971;-53
2021/11/18 01:54:10;;;;;;;;;;;6.00;99.90;;;;;;5055359;28;19925;-53
2021/11/18 01:56:37;;;;;;;;;;;6.00;99.90;;;;;;5055265;28;19988;-54
2021/11/18 01:59:07;;;;;;;;;;;6.00;99.90;;;;;;5054934;28;19924;-53
2021/11/18 02:01:34;;;;;;;;;;;6.00;99.90;;;;;;5048575;28;19925;-53
2021/11/18 02:04:00;;;;;;;;;;;6.00;99.90;;;;;;5055333;28;19979;-53
2021/11/18 02:06:30;;;;;;;;;;;5.90;99.90;;;;;;5055223;28;19928;-54
2021/11/18 02:08:57;;;;;;;;;;;5.90;99.90;;;;;;5054990;28;20448;-54
2021/11/18 02:11:27;;;;;;;;;;;5.90;99.90;;;;;;5054336;28;19925;-53
2021/11/18 02:13:55;;;;;;;;;;;5.80;99.90;;;;;;5055266;28;19925;-54
2021/11/18 02:16:23;;;;;;;;;;;5.80;99.90;;;;;;5054569;28;20039;-52
2021/11/18 02:18:50;;;;;;;;;;;5.90;99.90;;;;;;5054195;28;19929;-53
2021/11/18 02:21:19;;;;;;;;;;;5.80;99.90;;;;;;5054188;28;20038;-53
2021/11/18 02:23:47;;;;;;;;;;;5.60;99.90;;;;;;5054807;28;19928;-52
2021/11/18 02:26:13;;;;;;;;;;;5.60;99.90;;;;;;5054620;28;19925;-53
2021/11/18 02:28:41;;;;;;;;;;;5.70;99.90;;;;;;5054287;28;19978;-54
2021/11/18 02:31:13;;;;;;;;;;;5.70;99.90;;;;;;5053807;28;19970;-53
2021/11/18 02:33:40;;;;;;;;;;;5.90;99.90;;;;;;5054725;28;20378;-53
2021/11/18 02:36:07;;;;;;;;;;;5.90;99.90;;;;;;5054568;28;19978;-53
2021/11/18 02:38:35;;;;;;;;;;;5.80;99.90;;;;;;5054545;28;20384;-54
2021/11/18 02:41:02;;;;;;;;;;;5.80;99.90;;;;;;5053398;28;19925;-53
2021/11/18 02:43:29;;;;;;;;;;;5.80;99.90;;;;;;5054633;28;20353;-54
2021/11/18 02:45:55;;;;;;;;;;;5.60;99.90;;;;;;5053746;28;19929;-54
2021/11/18 02:48:22;;;;;;;;;;;5.50;99.90;;;;;;5054473;28;19925;-53
2021/11/18 02:50:50;;;;;;;;;;;5.60;99.90;;;;;;5053705;28;20296;-53
2021/11/18 02:53:17;;;;;;;;;;;5.50;99.90;;;;;;5053886;28;19970;-53
2021/11/18 02:55:46;;;;;;;;;;;5.00;99.90;;;;;;5053776;28;20406;-54
2021/11/18 02:58:13;;;;;;;;;;;4.90;99.90;;;;;;5054239;28;20051;-53
2021/11/18 03:00:46;;;;;;;;;;;5.10;99.90;;;;;;5053450;28;19925;-53
2021/11/18 03:03:13;;;;;;;;;;;5.20;99.90;;;;;;5054061;28;20464;-54
2021/11/18 03:05:40;;;;;;;;;;;5.10;99.90;;;;;;5053533;28;19925;-54
2021/11/18 03:08:06;;;;;;;;;;;5.10;99.90;;;;;;5054008;28;20342;-53
2021/11/18 03:10:33;;;;;;;;;;;5.20;99.90;;;;;;5053304;28;20383;-54
2021/11/18 03:13:01;;;;;;;;;;;5.00;99.90;;;;;;5054152;28;20353;-54
2021/11/18 03:15:28;;;;;;;;;;;4.90;99.90;;;;;;5053172;28;19994;-53
2021/11/18 03:17:55;;;;;;;;;;;5.00;99.90;;;;;;5053460;28;20391;-53
2021/11/18 03:20:24;;;;;;;;;;;5.10;99.90;;;;;;5053202;28;19925;-54
2021/11/18 03:22:51;;;;;;;;;;;5.10;99.90;;;;;;5053583;28;19925;-54
2021/11/18 03:25:23;;;;;;;;;;;5.10;99.90;;;;;;5053524;28;19924;-53
2021/11/18 03:27:50;;;;;;;;;;;5.10;99.90;;;;;;5053617;28;20357;-58
2021/11/18 03:30:22;;;;;;;;;;;5.10;99.90;;;;;;5051871;28;20375;-53
2021/11/18 03:32:49;;;;;;;;;;;5.10;99.90;;;;;;5052988;28;19982;-54
2021/11/18 03:35:17;;;;;;;;;;;5.00;99.90;;;;;;5053581;28;19932;-52
2021/11/18 03:37:43;;;;;;;;;;;4.80;99.90;;;;;;5053562;28;19928;-54
2021/11/18 03:40:11;;;;;;;;;;;4.20;99.90;;;;;;5053148;28;20280;-54
2021/11/18 03:42:38;;;;;;;;;;;4.10;99.90;;;;;;5053113;28;19925;-54
2021/11/18 03:45:05;;;;;;;;;;;4.40;99.90;;;;;;5053204;28;19925;-53
2021/11/18 03:47:33;;;;;;;;;;;4.50;99.90;;;;;;5124189;22;19931;-48
2021/11/18 03:50:00;;;;;;;;;;;4.40;99.90;;;;;;5113006;28;19924;-47
2021/11/18 03:52:27;;;;;;;;;;;4.40;99.90;;;;;;5112918;28;20351;-48
2021/11/18 03:54:53;;;;;;;;;;;4.20;99.90;;;;;;5113418;28;19923;-48
2021/11/18 03:57:20;;;;;;;;;;;3.90;99.90;;;;;;5113037;28;19924;-47
2021/11/18 03:59:48;;;;;;;;;;;3.60;99.90;;;;;;5114100;27;19924;-47
2021/11/18 04:02:15;;;;;;;;;;;3.40;99.90;;;;;;5121327;27;20320;-47
2021/11/18 04:04:45;;;;;;;;;;;3.40;99.90;;;;;;5113033;28;19931;-48
2021/11/18 04:07:14;;;;;;;;;;;3.40;99.90;;;;;;5112740;28;19928;-47
2021/11/18 04:09:41;;;;;;;;;;;3.50;99.90;;;;;;5113123;28;20002;-46
2021/11/18 04:12:09;;;;;;;;;;;3.60;99.90;;;;;;5112801;28;20351;-48
2021/11/18 04:14:37;;;;;;;;;;;3.90;99.90;;;;;;5112912;28;19936;-47
2021/11/18 04:17:04;;;;;;;;;;;3.90;99.90;;;;;;5113045;28;19924;-47
2021/11/18 04:19:31;;;;;;;;;;;3.90;99.90;;;;;;5112805;28;19977;-48
2021/11/18 04:21:59;;;;;;;;;;;4.10;99.90;;;;;;5112102;28;19936;-49
2021/11/18 04:24:27;;;;;;;;;;;4.20;99.90;;;;;;5113075;28;19927;-48
2021/11/18 04:26:54;;;;;;;;;;;4.20;99.90;;;;;;5112680;28;20393;-48
2021/11/18 04:29:28;;;;;;;;;;;4.10;99.90;;;;;;5112466;28;20442;-47
2021/11/18 04:31:55;;;;;;;;;;;4.10;99.90;;;;;;5112090;28;19931;-48
2021/11/18 04:34:22;;;;;;;;;;;4.20;99.90;;;;;;5112592;28;20416;-47
2021/11/18 04:36:49;;;;;;;;;;;4.20;99.90;;;;;;5112819;28;19955;-48
2021/11/18 04:39:17;;;;;;;;;;;4.20;99.90;;;;;;5112765;28;19924;-48
2021/11/18 04:41:44;;;;;;;;;;;4.10;99.90;;;;;;5111923;28;19924;-48
2021/11/18 04:44:11;;;;;;;;;;;4.10;99.90;;;;;;5112648;28;19924;-47
2021/11/18 04:46:38;;;;;;;;;;;3.90;99.90;;;;;;5112117;28;20038;-48
2021/11/18 04:49:05;;;;;;;;;;;3.40;99.90;;;;;;5112390;28;20418;-48
2021/11/18 04:51:32;;;;;;;;;;;3.20;99.90;;;;;;5111963;28;20386;-48
2021/11/18 04:53:59;;;;;;;;;;;3.10;99.90;;;;;;5112717;28;19985;-47
2021/11/18 04:56:28;;;;;;;;;;;3.00;99.90;;;;;;5112258;28;19984;-47
2021/11/18 04:58:56;;;;;;;;;;;3.00;99.90;;;;;;5112498;28;19924;-48
2021/11/18 05:01:23;;;;;;;;;;;3.00;99.90;;;;;;5111629;28;19950;-48
2021/11/18 05:03:51;;;;;;;;;;;3.00;99.90;;;;;;5112391;28;20001;-47
2021/11/18 05:06:18;;;;;;;;;;;3.10;99.90;;;;;;5112429;28;20034;-46
2021/11/18 05:08:45;;;;;;;;;;;3.30;99.90;;;;;;5112456;28;19927;-48
2021/11/18 05:11:11;;;;;;;;;;;3.40;99.90;;;;;;5111654;28;19931;-47
2021/11/18 05:13:40;;;;;;;;;;;3.50;99.90;;;;;;5111856;28;19969;-48
2021/11/18 05:16:09;;;;;;;;;;;3.70;99.90;;;;;;5112009;28;20435;-48
2021/11/18 05:18:36;;;;;;;;;;;3.80;99.90;;;;;;5111557;28;19932;-48
2021/11/18 05:21:04;;;;;;;;;;;3.90;99.90;;;;;;5111449;28;19924;-47
2021/11/18 05:23:31;;;;;;;;;;;4.00;99.90;;;;;;5111917;28;19928;-48
2021/11/18 05:25:58;;;;;;;;;;;4.00;99.90;;;;;;5111650;28;20494;-48
2021/11/18 05:28:25;;;;;;;;;;;4.00;99.90;;;;;;5112108;28;19977;-48
2021/11/18 05:30:54;;;;;;;;;;;4.10;99.90;;;;;;5110796;28;19923;-48
2021/11/18 05:33:21;;;;;;;;;;;4.00;99.90;;;;;;5111371;28;19969;-47
2021/11/18 05:35:48;;;;;;;;;;;4.00;99.90;;;;;;5111751;28;20385;-47
2021/11/18 05:38:15;;;;;;;;;;;4.10;99.90;;;;;;5111667;28;20027;-48
2021/11/18 05:40:44;;;;;;;;;;;4.10;99.90;;;;;;5111227;28;19977;-46
2021/11/18 05:43:11;;;;;;;;;;;4.20;99.90;;;;;;5111731;28;20446;-47
2021/11/18 05:45:38;;;;;;;;;;;4.10;99.90;;;;;;5111932;28;19996;-47
2021/11/18 05:48:08;;;;;;;;;;;4.00;99.90;;;;;;5111707;28;19928;-47
2021/11/18 05:50:35;;;;;;;;;;;3.80;99.90;;;;;;5111639;28;19924;-47
2021/11/18 05:53:02;;;;;;;;;;;3.80;99.90;;;;;;5111683;28;20001;-48
2021/11/18 05:55:33;;;;;;;;;;;3.80;99.90;;;;;;5114450;28;20351;-48
2021/11/18 05:57:59;;;;;;;;;;;3.90;99.90;;;;;;5114911;28;20480;-48
2021/11/18 06:00:28;;;;;;;;;;;4.00;99.90;;;;;;5117784;27;19969;-48
2021/11/18 06:02:55;;;;;;;;;;;4.10;99.90;;;;;;5115461;28;19924;-47
2021/11/18 06:05:25;;;;;;;;;;;4.10;99.90;;;;;;5115251;28;19977;-47
2021/11/18 06:07:52;;;;;;;;;;;4.20;99.90;;;;;;5115295;28;19923;-48
2021/11/18 06:10:19;;;;;;;;;;;4.20;99.90;;;;;;5113830;28;19969;-47
2021/11/18 06:12:46;;;;;;;;;;;4.20;99.90;;;;;;5113815;28;19923;-48
2021/11/18 06:15:13;;;;;;;;;;;4.30;99.90;;;;;;5113984;28;19969;-47
2021/11/18 06:17:40;;;;;;;;;;;4.40;99.90;;;;;;5115274;28;20071;-48
2021/11/18 06:20:08;;;;;;;;;;;4.50;99.90;;;;;;5114742;28;19924;-47
2021/11/18 06:22:36;;;;;;;;;;;4.50;99.90;;;;;;5098528;28;19931;-48
2021/11/18 06:25:04;;;;;;;;;;;4.60;99.90;;;;;;5109544;28;19980;-47
2021/11/18 06:27:31;;;;;;;;;;;4.70;99.90;;;;;;5110896;28;19923;-48
2021/11/18 06:29:57;;;;;;;;;;;4.60;99.90;;;;;;5115037;28;19935;-47
2021/11/18 06:32:24;;;;;;;;;;;4.60;99.90;;;;;;5114441;28;20386;-47
2021/11/18 06:34:51;;;;;;;;;;;4.70;99.90;;;;;;5114734;28;19928;-48
2021/11/18 06:37:18;;;;;;;;;;;4.70;99.90;;;;;;5114494;28;20400;-48
2021/11/18 06:39:47;;;;;;;;;;;4.60;99.90;;;;;;5114417;28;19930;-48
2021/11/18 06:42:14;;;;;;;;;;;4.60;99.90;;;;;;5114349;28;19924;-47
2021/11/18 06:44:44;;;;;;;;;;;4.60;99.90;;;;;;5114291;28;19928;-48
2021/11/18 06:47:11;;;;;;;;;;;4.60;99.90;;;;;;5113461;28;20339;-48
2021/11/18 06:49:38;;;;;;;;;;;4.70;99.90;;;;;;5113977;28;19924;-48
2021/11/18 06:52:07;;;;;;;;;;;4.90;99.90;;;;;;5114275;28;20034;-48
2021/11/18 06:54:34;;;;;;;;;;;5.10;99.90;;;;;;5114178;28;19924;-46
2021/11/18 06:57:02;;;;;;;;;;;5.10;99.90;;;;;;5113848;28;19977;-48
2021/11/18 06:59:31;;;;;;;;;;;5.20;99.90;;;;;;5114326;28;19960;-48
2021/11/18 07:01:58;;;;;;;;;;;5.10;99.90;;;;;;5112427;28;19981;-48
2021/11/18 07:04:25;;;;;;;;;;;5.10;99.90;;;;;;5112683;28;19976;-48
2021/11/18 07:06:52;;;;;;;;;;;5.20;99.90;;;;;;5104508;28;19928;-50
2021/11/18 07:09:19;;;;;;;;;;;5.20;99.90;;;;;;5106139;28;20363;-49
2021/11/18 07:11:45;;;;;;;;;;;5.10;99.90;;;;;;5113494;28;19977;-48
2021/11/18 07:14:14;;;;;;;;;;;5.10;99.90;;;;;;5113027;28;19958;-48
2021/11/18 07:16:40;;;;;;;;;;;5.20;99.90;;;;;;5109344;27;19924;-48
2021/11/18 07:19:07;;;;;;;;;;;5.30;99.90;;;;;;5113502;28;19977;-48
2021/11/18 07:21:35;;;;;;;;;;;5.20;99.90;;;;;;5113533;28;20007;-49
2021/11/18 07:24:03;;;;;;;;;;;5.00;99.90;;;;;;5113243;28;19970;-50
2021/11/18 07:26:31;;;;;;;;;;;5.00;99.90;;;;;;5113561;28;20317;-50
2021/11/18 07:29:01;;;;;;;;;;;5.30;99.90;;;;;;5113302;28;19928;-49
2021/11/18 07:31:30;;;;;;;;;;;5.40;99.90;;;;;;5113385;28;19932;-48
2021/11/18 07:33:56;;;;;;;;;;;5.40;99.90;;;;;;5106906;28;20015;-50
2021/11/18 07:36:23;;;;;;;;;;;5.50;99.90;;;;;;5104145;27;20389;-49
2021/11/18 07:38:50;;;;;;;;;;;5.40;99.90;;;;;;5112871;28;19928;-48
2021/11/18 07:41:17;;;;;;;;;;;5.50;99.90;;;;;;5112881;28;19924;-49
2021/11/18 07:43:45;;;;;;;;;;;5.60;99.90;;;;;;5113419;28;19923;-49
2021/11/18 07:46:13;;;;;;;;;;;5.80;99.90;;;;;;5113182;28;19974;-49
2021/11/18 07:48:42;;;;;;;;;;;5.80;99.90;;;;;;5112859;28;19927;-48
2021/11/18 07:51:10;;;;;;;;;;;5.90;99.90;;;;;;5113013;28;20010;-49
2021/11/18 07:53:37;;;;;;;;;;;6.00;99.90;;;;;;5113418;28;20306;-50
2021/11/18 07:56:03;;;;;;;;;;;6.20;99.90;;;;;;5113212;28;20347;-49
2021/11/18 07:58:30;;;;;;;;;;;6.40;99.90;;;;;;5113204;28;19928;-48
2021/11/18 08:00:58;;;;;;;;;;;6.50;99.90;;;;;;5113151;28;19969;-49
2021/11/18 08:03:25;;;;;;;;;;;6.60;99.90;;;;;;5112935;28;20397;-49
2021/11/18 08:05:53;;;;;;;;;;;6.70;99.90;;;;;;5112996;28;19924;-49
2021/11/18 08:08:20;;;;;;;;;;;7.00;99.90;;;;;;5112499;28;19973;-49
2021/11/18 08:10:47;;;;;;;;;;;7.10;99.90;;;;;;5112802;28;19923;-50
2021/11/18 08:13:14;;;;;;;;;;;7.20;99.90;;;;;;5113136;28;19924;-49
2021/11/18 08:15:40;;;;;;;;;;;7.40;99.90;;;;;;5113031;28;19923;-49
2021/11/18 08:18:07;;;;;;;;;;;7.50;99.90;;;;;;5112319;28;19979;-50
2021/11/18 08:20:34;;;;;;;;;;;7.60;99.90;;;;;;5112558;28;19923;-50
2021/11/18 08:23:02;;;;;;;;;;;7.70;99.90;;;;;;5112817;28;19969;-49
2021/11/18 08:25:31;;;;;;;;;;;7.80;99.90;;;;;;5112749;28;19928;-50
2021/11/18 08:27:57;;;;;;;;;;;7.90;99.90;;;;;;5112629;28;19924;-50
2021/11/18 08:30:26;;;;;;;;;;;8.10;99.90;;;;;;5112615;28;19977;-49
2021/11/18 08:32:54;;;;;;;;;;;8.10;99.90;;;;;;5112698;28;19923;-49
2021/11/18 08:35:23;;;;;;;;;;;8.20;99.90;;;;;;5112361;28;19928;-50
2021/11/18 08:37:51;;;;;;;;;;;8.30;99.90;;;;;;5112537;28;19938;-50
2021/11/18 08:40:19;;;;;;;;;;;8.40;99.90;;;;;;5112452;28;20463;-50
2021/11/18 08:42:46;;;;;;;;;;;8.40;99.90;;;;;;5112574;28;19924;-50
2021/11/18 08:45:13;;;;;;;;;;;8.50;99.90;;;;;;5112312;28;19969;-49
2021/11/18 08:47:40;;;;;;;;;;;8.40;99.90;;;;;;5112311;28;19927;-50
2021/11/18 08:50:08;;;;;;;;;;;8.40;99.90;;;;;;5112239;28;19923;-49
2021/11/18 08:52:35;;;;;;;;;;;8.30;99.90;;;;;;5112541;28;19924;-49
2021/11/18 08:55:04;;;;;;;;;;;8.30;99.90;;;;;;5112226;28;19977;-49
2021/11/18 08:57:32;;;;;;;;;;;8.30;99.90;;;;;;5091924;28;19928;-49
2021/11/18 08:59:58;;;;;;;;;;;8.40;99.90;;;;;;5092017;28;19924;-50
2021/11/18 09:02:27;;;;;;;;;;;8.80;99.90;;;;;;5091341;28;19977;-49
2021/11/18 09:04:54;;;;;;;;;;;8.60;99.90;;;;;;5092255;28;19924;-49
2021/11/18 09:07:21;;;;;;;;;;;8.40;99.90;;;;;;5111713;28;19968;-49
2021/11/18 09:09:48;;;;;;;;;;;8.30;99.90;;;;;;5112463;28;19931;-49
2021/11/18 09:12:15;;;;;;;;;;;8.60;99.90;;;;;;5112003;28;20053;-49
2021/11/18 09:14:43;;;;;;;;;;;8.40;99.90;;;;;;5112314;28;19924;-48
2021/11/18 09:17:11;;;;;;;;;;;8.80;99.90;;;;;;5111907;28;19924;-49
2021/11/18 09:19:38;;;;;;;;;;;8.70;99.90;;;;;;5112466;28;19924;-50
2021/11/18 09:22:06;;;;;;;;;;;8.80;99.90;;;;;;5112082;28;19977;-50
2021/11/18 09:24:34;;;;;;;;;;;9.00;99.90;;;;;;5112233;28;19924;-49
2021/11/18 09:27:02;;;;;;;;;;;9.00;99.90;;;;;;5111778;28;20458;-50
2021/11/18 09:29:29;;;;;;;;;;;9.30;99.90;;;;;;5113787;28;19923;-50
2021/11/18 09:31:59;;;;;;;;;;;9.30;99.90;;;;;;5116108;28;19930;-49
2021/11/18 09:34:26;;;;;;;;;;;9.10;99.90;;;;;;5116242;28;19969;-49
2021/11/18 09:36:54;;;;;;;;;;;9.00;99.90;;;;;;5115809;28;19924;-50
2021/11/18 09:39:21;;;;;;;;;;;9.30;99.90;;;;;;5115883;28;19931;-49
2021/11/18 09:41:52;;;;;;;;;;;9.50;99.90;;;;;;5115568;28;19923;-50
2021/11/18 09:44:36;;;;;;;;;;;9.30;99.90;;;;;;5116080;28;19928;-50
2021/11/18 09:47:23;;;;;;;;;;;9.10;99.90;;;;;;5136843;22;19976;-55
2021/11/18 09:49:59;;;;;;;;;;;9.00;99.90;;;;;;5115963;28;20389;-54
2021/11/18 09:52:28;;;;;;;;;;;9.10;99.90;;;;;;5115464;28;19955;-54
2021/11/18 09:55:03;;;;;;;;;;;9.40;99.90;;;;;;5115536;28;20305;-54
2021/11/18 09:57:32;;;;;;;;;;;9.60;99.90;;;;;;5115591;28;19932;-54
2021/11/18 10:00:02;;;;;;;;;;;9.60;99.90;;;;;;5115751;28;20446;-54
2021/11/18 10:02:46;;;;;;;;;;;9.80;99.90;;;;;;5114382;28;19932;-55
2021/11/18 10:05:16;;;;;;;;;;;9.90;99.90;;;;;;5116574;27;20008;-54
2021/11/18 10:07:45;;;;;;;;;;;10.20;99.90;;;;;;5115902;28;20015;-54
2021/11/18 10:10:21;;;;;;;;;;;10.40;99.90;;;;;;5115458;27;20369;-54
2021/11/18 10:12:56;;;;;;;;;;;10.20;99.90;;;;;;5115621;27;19923;-54
2021/11/18 10:15:24;;;;;;;;;;;10.10;99.90;;;;;;5115212;28;19927;-54
2021/11/18 10:17:55;;;;;;;;;;;9.60;99.90;;;;;;5115120;28;19924;-54
2021/11/18 10:20:24;;;;;;;;;;;9.70;99.90;;;;;;5114864;28;19969;-54
2021/11/18 10:22:52;;;;;;;;;;;9.90;99.90;;;;;;5118975;27;19945;-54
2021/11/18 10:25:22;;;;;;;;;;;10.10;99.90;;;;;;5134710;27;19973;-55
2021/11/18 10:27:50;;;;;;;;;;;10.20;99.90;;;;;;5115091;28;19924;-54
2021/11/18 10:30:20;;;;;;;;;;;10.40;99.90;;;;;;5114976;28;20375;-55
2021/11/18 10:32:59;;;;;;;;;;;9.90;99.90;;;;;;5115206;28;19976;-54
2021/11/18 10:35:29;;;;;;;;;;;9.50;99.90;;;;;;5115150;28;19969;-54
2021/11/18 10:38:12;;;;;;;;;;;9.50;99.90;;;;;;5115196;28;19969;-54
2021/11/18 10:40:49;;;;;;;;;;;9.60;99.90;;;;;;5114369;28;19930;-54
2021/11/18 10:43:17;;;;;;;;;;;9.50;99.90;;;;;;5114962;28;19976;-54
2021/11/18 10:45:45;;;;;;;;;;;9.80;99.90;;;;;;5114526;28;20429;-55
2021/11/18 10:48:16;;;;;;;;;;;9.80;99.90;;;;;;5114748;28;19977;-54
2021/11/18 10:50:45;;;;;;;;;;;9.60;99.90;;;;;;5114693;28;19923;-54
2021/11/18 10:53:16;;;;;;;;;;;9.80;99.90;;;;;;5114328;28;20450;-54
2021/11/18 10:55:45;;;;;;;;;;;10.00;99.90;;;;;;5114560;28;19984;-54
2021/11/18 10:58:14;;;;;;;;;;;10.10;99.90;;;;;;5114038;28;19969;-54
2021/11/18 11:00:46;;;;;;;;;;;10.30;99.90;;;;;;5110863;28;19924;-54
2021/11/18 11:03:28;;;;;;;;;;;10.50;99.90;;;;;;5094031;28;19928;-54
2021/11/18 11:06:09;;;;;;;;;;;10.30;99.90;;;;;;5105255;28;19924;-53
2021/11/18 11:08:38;;;;;;;;;;;10.70;99.90;;;;;;5092156;28;19927;-54
2021/11/18 11:11:08;;;;;;;;;;;10.60;99.90;;;;;;5094134;28;19936;-53
2021/11/18 11:13:43;;;;;;;;;;;10.50;99.90;;;;;;5106159;28;20018;-54
2021/11/18 11:16:18;;;;;;;;;;;10.20;99.90;;;;;;5094686;28;19973;-54
2021/11/18 11:18:51;;;;;;;;;;;10.10;99.90;;;;;;5102853;28;19924;-55
2021/11/18 11:21:35;;;;;;;;;;;9.90;99.90;;;;;;5113491;28;19924;-54
2021/11/18 11:24:22;;;;;;;;;;;9.60;99.90;;;;;;5114043;28;19927;-54
2021/11/18 11:27:07;;;;;;;;;;;9.50;99.90;;;;;;5102881;28;20348;-53
2021/11/18 11:29:40;;;;;;;;;;;9.70;99.90;;;;;;5113385;28;19928;-54
2021/11/18 11:32:12;;;;;;;;;;;9.80;99.90;;;;;;5108606;28;19923;-54
2021/11/18 11:34:46;;;;;;;;;;;10.10;99.90;;;;;;5097584;28;19928;-55
2021/11/18 11:37:22;;;;;;;;;;;10.10;99.90;;;;;;5113029;28;20006;-54
2021/11/18 11:39:51;;;;;;;;;;;10.30;99.90;;;;;;5113515;28;19977;-54
2021/11/18 11:42:41;;;;;;;;;;;10.20;99.90;;;;;;5113035;27;19985;-54
2021/11/18 11:45:16;;;;;;;;;;;10.20;99.90;;;;;;5113830;27;20841;-54
2021/11/18 11:47:56;;;;;;;;;;;10.30;99.90;;;;;;5123100;27;19924;-55
2021/11/18 11:50:26;;;;;;;;;;;10.50;99.90;;;;;;5100199;28;19924;-54
2021/11/18 11:52:57;;;;;;;;;;;10.20;99.90;;;;;;5104845;28;19931;-54
2021/11/18 11:55:38;;;;;;;;;;;10.40;99.90;;;;;;5112761;28;20019;-54
2021/11/18 11:58:08;;;;;;;;;;;10.60;99.90;;;;;;5098172;28;19924;-54
2021/11/18 12:00:42;;;;;;;;;;;10.50;99.90;;;;;;5109021;28;19924;-54
2021/11/18 12:03:14;;;;;;;;;;;10.70;99.90;;;;;;5097069;28;19923;-54
2021/11/18 12:05:45;;;;;;;;;;;10.70;99.90;;;;;;5111955;28;20003;-54
2021/11/18 12:08:15;;;;;;;;;;;10.90;99.90;;;;;;5093101;28;19931;-54
2021/11/18 12:10:45;;;;;;;;;;;10.40;99.90;;;;;;5104482;28;20454;-54
2021/11/18 12:13:21;;;;;;;;;;;10.30;99.90;;;;;;5112867;27;20450;-54
2021/11/18 12:15:52;;;;;;;;;;;10.30;99.90;;;;;;5111489;28;19928;-54
2021/11/18 12:18:23;;;;;;;;;;;10.10;99.90;;;;;;5111848;28;19993;-54
2021/11/18 12:20:50;;;;;;;;;;;10.40;99.90;;;;;;5112280;28;19979;-55
2021/11/18 12:23:18;;;;;;;;;;;10.30;99.90;;;;;;5110179;28;20042;-53
2021/11/18 12:26:04;;;;;;;;;;;10.30;99.90;;;;;;5112306;28;20495;-54
2021/11/18 12:28:32;;;;;;;;;;;10.00;99.90;;;;;;5112503;28;20351;-54
2021/11/18 12:31:15;;;;;;;;;;;10.20;99.90;;;;;;5112096;28;19924;-53
2021/11/18 12:33:47;;;;;;;;;;;10.60;99.90;;;;;;5112152;28;20196;-54
2021/11/18 12:36:16;;;;;;;;;;;10.50;99.90;;;;;;5112663;28;19927;-54
2021/11/18 12:38:44;;;;;;;;;;;10.50;99.90;;;;;;5112713;28;19924;-54
2021/11/18 12:41:13;;;;;;;;;;;10.60;99.90;;;;;;5095017;28;20657;-54
2021/11/18 12:44:04;;;;;;;;;;;10.60;99.90;;;;;;5092181;28;19973;-54
2021/11/18 12:46:34;;;;;;;;;;;10.70;99.90;;;;;;5107143;28;19931;-54
2021/11/18 12:49:14;;;;;;;;;;;10.50;99.90;;;;;;5107772;28;19932;-54
2021/11/18 12:52:14;;;;;;;;;;;10.60;99.90;;;;;;5112275;28;20393;-54
2021/11/18 12:54:46;;;;;;;;;;;10.50;99.90;;;;;;5112149;28;19923;-54
2021/11/18 12:57:28;;;;;;;;;;;10.50;99.90;;;;;;5112699;28;19923;-54
2021/11/18 12:59:55;;;;;;;;;;;10.40;99.90;;;;;;5112169;28;19985;-54
2021/11/18 13:02:51;;;;;;;;;;;10.40;99.90;;;;;;5112135;28;19927;-54
2021/11/18 13:05:50;;;;;;;;;;;10.40;99.90;;;;;;5080292;28;20015;-53
2021/11/18 13:08:36;;;;;;;;;;;10.50;99.90;;;;;;5053691;28;19928;-54
2021/11/18 13:11:17;;;;;;;;;;;10.40;99.90;;;;;;5053160;28;19925;-53
2021/11/18 13:13:45;;;;;;;;;;;10.60;99.90;;;;;;5094548;28;19923;-54
2021/11/18 13:16:30;;;;;;;;;;;10.60;99.90;;;;;;5116596;28;19924;-54
2021/11/18 13:19:01;;;;;;;;;;;10.60;99.90;;;;;;5115721;27;20026;-54
2021/11/18 13:21:44;;;;;;;;;;;10.80;99.90;;;;;;5116073;28;19923;-53
2021/11/18 13:24:11;;;;;;;;;;;10.70;99.90;;;;;;5116388;28;20289;-54
2021/11/18 13:26:38;;;;;;;;;;;10.60;99.90;;;;;;5116352;28;20354;-54
2021/11/18 13:29:12;;;;;;;;;;;10.50;99.90;;;;;;5115833;28;19984;-55
2021/11/18 13:31:40;;;;;;;;;;;10.40;99.90;;;;;;5115896;28;20431;-54
2021/11/18 13:34:12;;;;;;;;;;;10.50;99.90;;;;;;5116146;28;19968;-54
2021/11/18 13:36:39;;;;;;;;;;;10.60;99.90;;;;;;5115949;28;19927;-53
2021/11/18 13:39:08;;;;;;;;;;;10.50;99.90;;;;;;5115977;28;19924;-54
2021/11/18 13:41:39;;;;;;;;;;;10.30;99.90;;;;;;5115300;28;19955;-53
2021/11/18 13:44:09;;;;;;;;;;;10.10;99.90;;;;;;5115998;28;20010;-54
2021/11/18 13:46:38;;;;;;;;;;;9.80;99.90;;;;;;5115621;28;20305;-51
2021/11/18 13:49:07;;;;;;;;;;;9.60;99.90;;;;;;5115596;28;20377;-51
2021/11/18 13:51:37;;;;;;;;;;;9.40;99.90;;;;;;5115529;28;20434;-52
2021/11/18 13:54:04;;;;;;;;;;;9.00;99.90;;;;;;5115785;28;20466;-51
2021/11/18 13:56:33;;;;;;;;;;;8.80;99.90;;;;;;5115779;28;20437;-51
2021/11/18 13:59:02;;;;;;;;;;;8.70;99.90;;;;;;5115407;28;19923;-51
2021/11/18 14:01:30;;;;;;;;;;;8.70;99.90;;;;;;5113903;28;20334;-51
2021/11/18 14:04:00;;;;;;;;;;;8.70;99.90;;;;;;5126884;27;19950;-52
2021/11/18 14:06:28;;;;;;;;;;;8.60;99.90;;;;;;5137715;27;19923;-51
2021/11/18 14:09:00;;;;;;;;;;;8.50;99.90;;;;;;5119360;27;19969;-51
2021/11/18 14:11:29;;;;;;;;;;;8.50;99.90;;;;;;5116717;27;19927;-51
2021/11/18 14:13:57;;;;;;;;;;;8.50;99.90;;;;;;5137623;27;20002;-51
2021/11/18 14:16:28;;;;;;;;;;;8.50;99.90;;;;;;5118736;27;20378;-52
2021/11/18 14:19:01;;;;;;;;;;;8.50;99.90;;;;;;5116856;28;19973;-51
2021/11/18 14:21:31;;;;;;;;;;;8.30;99.90;;;;;;5117710;28;19924;-52
2021/11/18 14:24:00;;;;;;;;;;;8.20;99.90;;;;;;5117075;27;20023;-53
2021/11/18 14:26:33;;;;;;;;;;;8.10;99.90;;;;;;5117661;27;20454;-52
2021/11/18 14:29:20;;;;;;;;;;;8.20;99.90;;;;;;5100336;28;19932;-52
2021/11/18 14:31:55;;;;;;;;;;;8.20;99.90;;;;;;5116452;27;20425;-52
2021/11/18 14:34:30;;;;;;;;;;;8.20;99.90;;;;;;5116843;28;20485;-52
2021/11/18 14:36:58;;;;;;;;;;;8.20;99.90;;;;;;5116227;28;19923;-52
2021/11/18 14:39:26;;;;;;;;;;;8.00;99.90;;;;;;5114823;28;19928;-51
2021/11/18 14:41:56;;;;;;;;;;;7.80;99.90;;;;;;5114928;28;19928;-52